Detall de PIREP

Printer-friendly versionPDF version

[2010/05/17 16:39:00]
Flight IATA:CT0001
Pilot Number:026
Company ICAO:CAT
Aircraft Type:T/F28/F
PAX:74
Departing Airport: LERS
Destination Airport: LEMH
Alternate Airport:LEPA
Online: VATSIM
Route:BCN H70 SARGO
Flight Level:FL210
No Slew and time accel
No pause
Crash detect
Detect pilot in Cockpit between each 30 and 45 minutes
16:39 Zero fuel Weight: 64786 Lbs, Fuel Weight: 8000 Lbs
16:39 VATSIM:LERS 171600Z 14004KT 090V190 9999 SCT025 BKN120 17/11 Q1008
16:39 VATSIM:LEMH 171600Z 22006KT 160V270 9999 SCT012 19/15 Q1007
16:39 VOICE CATALONIAN / FLY-IN IFR CLASSIC
16:49 Parking Brakes off
16:56 Take-off
16:56 Take off Weight: 72339 Lbs
16:56 Wind: 213º @ 004 Knots Heading: 069º
16:56 POS N41º 09Ž 08ŽŽ E001º 11Ž 00ŽŽ
16:56 Flaps:1 at 165 Knots
16:56 Gear Up: 167 Knots
16:57 Flaps:0 at 181 Knots
17:07 TOC
17:07 Fuel Weight: 5951 Lb
17:11 Wind:146º@007 Knots Heading: 124º Ground Speed: 402 Knots Altitude 20646 ft
17:12 TOD
17:12 Fuel Weight: 5653 Lb
17:26 Wind:219º@009 Knots Heading: 120º Ground Speed: 294 Knots Altitude 18707 ft
17:41 Wind:239º@012 Knots Heading: 051º Ground Speed: 252 Knots Altitude 6587 ft
17:48 Flaps:1 at 209 Knots
17:48 Flaps:2 at 206 Knots
17:49 Flaps:3 at 155 Knots
17:49 Gear Down: 156 Knots
17:51 TouchDown:Rate -452 ft/min Speed: 157 Knots
17:51 Flaps:0 at 47 Knots
17:51 VATSIM:LEMH 171730Z 24006KT 210V280 9999 BKN011 19/16 Q1007
17:51 Land
17:51 Wind:241º@006 Knots
17:51 Heading: 149º
17:51 Flight Duration: 00:55
17:51 Landing Weight: 68206 Lbs
17:51 POS N39º 51Ž 20ŽŽ E004º 13Ž 03ŽŽ
17:55 Parking brakes on
17:55 Block to Block Duration: 01:06
17:55 Final Fuel: 3231 Lbls
17:55 Spent Fuel: 4768 Lbls
17:55 Flight Length: 166 NM
17:55 TOD Land Length: 113 NM
FSAcars 4.0.15
32720

Exportar CSV

Powered by Drupal - Modified by Danger4k